EZY346J EGAA-EGPF
Flight info
| Callsign | EZY346J |
|---|---|
| Flight time | N/A |
| Altitude | 17000 |
| Route | BLACA |
| Aircraft | A320/M-SDE3FGHIRWY/LB1 |
Departure
| Time | 2026-04-28 10:04 |
|---|---|
| Airport | Belfast International Airport (EGAA) |
Arrival
| Time | N/A |
|---|---|
| Airport | Glasgow Airport (EGPF) |
| Time | Latitude | Longitude | Altitude | Speed | Heading |
|---|---|---|---|---|---|
| 2026-04-28 09:42 | 54.65949 | -6.21925 | 272 ft | 0 kts | 65° |
| 2026-04-28 09:56 | 54.65942 | -6.21951 | 272 ft | 4 kts | 67° |
| 2026-04-28 09:56 | 54.65933 | -6.21995 | 272 ft | 4 kts | 74° |
| 2026-04-28 09:56 | 54.65928 | -6.22039 | 272 ft | 4 kts | 96° |
| 2026-04-28 09:57 | 54.65936 | -6.22073 | 272 ft | 2 kts | 154° |
| 2026-04-28 09:57 | 54.65937 | -6.22074 | 272 ft | 0 kts | 155° |
| 2026-04-28 09:59 | 54.65933 | -6.22071 | 272 ft | 3 kts | 155° |
| 2026-04-28 09:59 | 54.65920 | -6.22060 | 277 ft | 1 kts | 156° |
| 2026-04-28 09:59 | 54.65891 | -6.22037 | 272 ft | 8 kts | 155° |
| 2026-04-28 10:00 | 54.65830 | -6.22017 | 272 ft | 10 kts | 199° |
| 2026-04-28 10:00 | 54.65790 | -6.22112 | 272 ft | 10 kts | 248° |
| 2026-04-28 10:00 | 54.65773 | -6.22218 | 272 ft | 9 kts | 259° |
| 2026-04-28 10:00 | 54.65763 | -6.22352 | 272 ft | 13 kts | 263° |
| 2026-04-28 10:01 | 54.65752 | -6.22501 | 272 ft | 12 kts | 263° |
| 2026-04-28 10:01 | 54.65745 | -6.22636 | 272 ft | 11 kts | 266° |
| 2026-04-28 10:01 | 54.65739 | -6.22763 | 272 ft | 10 kts | 264° |
| 2026-04-28 10:01 | 54.65719 | -6.22871 | 273 ft | 10 kts | 243° |
| 2026-04-28 10:02 | 54.65668 | -6.22999 | 274 ft | 16 kts | 233° |
| 2026-04-28 10:02 | 54.65591 | -6.23179 | 272 ft | 15 kts | 233° |
| 2026-04-28 10:02 | 54.65506 | -6.23339 | 272 ft | 21 kts | 203° |
| 2026-04-28 10:02 | 54.65381 | -6.23406 | 272 ft | 18 kts | 170° |
| 2026-04-28 10:03 | 54.65288 | -6.23297 | 272 ft | 13 kts | 91° |
| 2026-04-28 10:03 | 54.65305 | -6.23225 | 272 ft | 0 kts | 64° |
| 2026-04-28 10:03 | 54.65333 | -6.23126 | 272 ft | 38 kts | 64° |
| 2026-04-28 10:04 | 54.65553 | -6.22308 | 272 ft | 108 kts | 64° |
| 2026-04-28 10:04 | 54.65933 | -6.20890 | 518 ft | 138 kts | 68° |
| 2026-04-28 10:04 | 54.66336 | -6.19365 | 1218 ft | 142 kts | 66° |
| 2026-04-28 10:04 | 54.66767 | -6.17761 | 1844 ft | 154 kts | 67° |
| 2026-04-28 10:05 | 54.67208 | -6.16008 | 2310 ft | 171 kts | 70° |
| 2026-04-28 10:05 | 54.67653 | -6.13940 | 2680 ft | 196 kts | 70° |
| 2026-04-28 10:05 | 54.68145 | -6.11590 | 3190 ft | 221 kts | 70° |
| 2026-04-28 10:05 | 54.68698 | -6.08959 | 3771 ft | 242 kts | 69° |
| 2026-04-28 10:06 | 54.69286 | -6.06184 | 4728 ft | 248 kts | 69° |
| 2026-04-28 10:06 | 54.69886 | -6.03375 | 5752 ft | 250 kts | 69° |
| 2026-04-28 10:06 | 54.70497 | -6.00533 | 6744 ft | 254 kts | 69° |
| 2026-04-28 10:06 | 54.71119 | -5.97643 | 7653 ft | 258 kts | 69° |
| 2026-04-28 10:07 | 54.71748 | -5.94709 | 8596 ft | 262 kts | 69° |
| 2026-04-28 10:07 | 54.72382 | -5.91740 | 9554 ft | 265 kts | 69° |
| 2026-04-28 10:07 | 54.73023 | -5.88730 | 10483 ft | 268 kts | 68° |
| 2026-04-28 10:07 | 54.73692 | -5.85603 | 10986 ft | 288 kts | 68° |
| 2026-04-28 10:08 | 54.74418 | -5.82227 | 11277 ft | 312 kts | 68° |
| 2026-04-28 10:08 | 54.75202 | -5.78577 | 11609 ft | 331 kts | 68° |
| 2026-04-28 10:08 | 54.75997 | -5.74836 | 12277 ft | 337 kts | 68° |
| 2026-04-28 10:08 | 54.76808 | -5.71006 | 13075 ft | 341 kts | 68° |
| 2026-04-28 10:09 | 54.77629 | -5.67131 | 13867 ft | 344 kts | 68° |
| 2026-04-28 10:09 | 54.78456 | -5.63224 | 14613 ft | 347 kts | 68° |
| 2026-04-28 10:09 | 54.79288 | -5.59274 | 15317 ft | 350 kts | 68° |
| 2026-04-28 10:09 | 54.80125 | -5.55291 | 15997 ft | 353 kts | 68° |
| 2026-04-28 10:10 | 54.80970 | -5.51271 | 16672 ft | 356 kts | 68° |
| 2026-04-28 10:10 | 54.81819 | -5.47228 | 17265 ft | 359 kts | 68° |
| 2026-04-28 10:10 | 54.82672 | -5.43153 | 17468 ft | 361 kts | 68° |
| 2026-04-28 10:10 | 54.83554 | -5.38939 | 17489 ft | 380 kts | 68° |
| 2026-04-28 10:11 | 54.84473 | -5.34539 | 17487 ft | 393 kts | 68° |
| 2026-04-28 10:11 | 54.85406 | -5.30041 | 17484 ft | 397 kts | 68° |
| 2026-04-28 10:11 | 54.86340 | -5.25532 | 17490 ft | 397 kts | 68° |
| 2026-04-28 10:11 | 54.87472 | -5.21170 | 17485 ft | 395 kts | 58° |
| 2026-04-28 10:12 | 54.89041 | -5.17342 | 17485 ft | 394 kts | 48° |
| 2026-04-28 10:12 | 54.91028 | -5.14082 | 17479 ft | 394 kts | 38° |
| 2026-04-28 10:12 | 54.93357 | -5.11547 | 17482 ft | 396 kts | 28° |
| 2026-04-28 10:12 | 54.95830 | -5.09419 | 17483 ft | 397 kts | 27° |
| 2026-04-28 10:13 | 54.98301 | -5.07288 | 17480 ft | 397 kts | 27° |
| 2026-04-28 10:13 | 55.00778 | -5.05147 | 17482 ft | 397 kts | 28° |
| 2026-04-28 10:13 | 55.03248 | -5.03006 | 17481 ft | 397 kts | 28° |
| 2026-04-28 10:13 | 55.05718 | -5.00857 | 17484 ft | 397 kts | 28° |
| 2026-04-28 10:14 | 55.08188 | -4.98699 | 17452 ft | 394 kts | 28° |
| 2026-04-28 10:14 | 55.10591 | -4.96600 | 17204 ft | 378 kts | 28° |
| 2026-04-28 10:14 | 55.12972 | -4.94858 | 16389 ft | 367 kts | 19° |
| 2026-04-28 10:14 | 55.15450 | -4.93650 | 14789 ft | 372 kts | 17° |
| 2026-04-28 10:15 | 55.17969 | -4.92518 | 13198 ft | 375 kts | 16° |
| 2026-04-28 10:15 | 55.20487 | -4.91435 | 12340 ft | 369 kts | 16° |
| 2026-04-28 10:15 | 55.22943 | -4.90386 | 11908 ft | 358 kts | 16° |
| 2026-04-28 10:15 | 55.25342 | -4.89340 | 11498 ft | 349 kts | 16° |
| 2026-04-28 10:16 | 55.27598 | -4.88342 | 11362 ft | 320 kts | 17° |